createdAt,value
2022-11-03T00:00:12.407Z,10.5
2022-11-03T00:01:12.899Z,10.4
2022-11-03T00:02:17.507Z,10.4
2022-11-03T00:03:21.980Z,10.4
2022-11-03T00:04:26.254Z,10.4
2022-11-03T00:05:30.847Z,10.4
2022-11-03T00:06:40.364Z,10.4
2022-11-03T00:07:44.480Z,10.3
2022-11-03T00:08:49.200Z,10.3
2022-11-03T00:09:53.855Z,10.3
2022-11-03T00:10:58.361Z,10.3
2022-11-03T00:12:13.034Z,10.3
2022-11-03T00:13:17.581Z,10.2
2022-11-03T00:14:22.145Z,10.2
2022-11-03T00:15:26.236Z,10.2
2022-11-03T00:16:30.954Z,10.2
2022-11-03T00:17:35.554Z,10.1
2022-11-03T00:18:40.275Z,10.1
2022-11-03T00:19:44.970Z,10.1
2022-11-03T00:20:49.491Z,10.1
2022-11-03T00:21:56.230Z,10.1
2022-11-03T00:23:00.435Z,10
2022-11-03T00:24:05.011Z,10
2022-11-03T00:25:09.607Z,10
2022-11-03T00:26:14.238Z,10
2022-11-03T00:27:18.720Z,10
2022-11-03T00:28:23.263Z,9.9
2022-11-03T00:29:27.259Z,9.9
2022-11-03T00:30:31.451Z,9.9
2022-11-03T00:31:36.024Z,9.8
2022-11-03T00:32:40.603Z,9.8
2022-11-03T00:33:44.766Z,9.8
2022-11-03T00:34:49.320Z,9.8
2022-11-03T00:35:53.919Z,9.8
2022-11-03T00:36:58.720Z,9.8
2022-11-03T00:38:03.324Z,9.8
2022-11-03T00:39:07.646Z,9.7
2022-11-03T00:40:12.383Z,9.7
2022-11-03T00:41:16.862Z,9.7
2022-11-03T00:42:21.266Z,9.7
2022-11-03T00:43:25.567Z,9.7
2022-11-03T00:44:30.609Z,9.6
2022-11-03T00:45:35.495Z,9.6
2022-11-03T00:46:39.686Z,9.6
2022-11-03T00:47:43.900Z,9.6
2022-11-03T00:48:53.470Z,9.5
2022-11-03T00:49:58.094Z,9.5
2022-11-03T00:51:02.703Z,9.5
2022-11-03T00:52:09.766Z,9.5
2022-11-03T00:53:14.327Z,9.5
2022-11-03T00:54:18.983Z,9.5
2022-11-03T00:55:23.354Z,9.5
2022-11-03T00:56:27.535Z,9.5
2022-11-03T00:57:32.068Z,9.5
2022-11-03T00:58:36.126Z,9.5
2022-11-03T00:59:40.545Z,9.4
2022-11-03T01:00:44.960Z,9.5
2022-11-03T01:01:49.218Z,9.4
2022-11-03T01:02:53.754Z,9.4
2022-11-03T01:03:58.146Z,9.4
2022-11-03T01:05:07.890Z,9.4
2022-11-03T01:06:17.426Z,9.4
2022-11-03T01:07:27.117Z,9.4
2022-11-03T01:08:31.270Z,9.4
2022-11-03T01:09:36.026Z,9.4
2022-11-03T01:10:40.431Z,9.4
2022-11-03T01:11:50.146Z,9.4
2022-11-03T01:12:57.902Z,9.4
2022-11-03T01:14:03.005Z,9.3
2022-11-03T01:15:07.366Z,9.3
2022-11-03T01:16:11.375Z,9.3
2022-11-03T01:17:15.573Z,9.3
2022-11-03T01:18:20.311Z,9.3
2022-11-03T01:19:24.746Z,9.3
2022-11-03T01:20:29.215Z,9.3
2022-11-03T01:21:33.958Z,9.2
2022-11-03T01:22:38.346Z,9.2
2022-11-03T01:23:42.430Z,9.2
2022-11-03T01:24:46.803Z,9.2
2022-11-03T01:25:51.247Z,9.2
2022-11-03T01:26:55.775Z,9.2
2022-11-03T01:27:59.956Z,9.1
2022-11-03T01:29:03.959Z,9.2
2022-11-03T01:30:08.769Z,9.2
2022-11-03T01:31:13.208Z,9.2
2022-11-03T01:32:20.330Z,9.1
2022-11-03T01:33:24.874Z,9.1
2022-11-03T01:34:29.506Z,9.1
2022-11-03T01:35:34.002Z,9.1
2022-11-03T01:36:38.599Z,9.1
2022-11-03T01:37:42.630Z,9.1
2022-11-03T01:38:46.854Z,9.1
2022-11-03T01:39:51.394Z,9
2022-11-03T01:40:55.919Z,9
2022-11-03T01:42:00.291Z,9
2022-11-03T01:43:04.918Z,9
2022-11-03T01:44:19.331Z,8.9
2022-11-03T01:45:24.008Z,8.9
2022-11-03T01:46:28.834Z,8.9
2022-11-03T01:47:33.135Z,8.9
2022-11-03T01:48:37.634Z,8.9
2022-11-03T01:49:41.946Z,8.9
2022-11-03T01:50:51.638Z,8.9
2022-11-03T01:51:56.134Z,8.9
2022-11-03T01:53:06.009Z,8.9
2022-11-03T01:54:10.330Z,8.9
2022-11-03T01:55:14.990Z,8.9
2022-11-03T01:56:25.198Z,8.9
2022-11-03T01:57:29.794Z,8.9
2022-11-03T01:58:37.493Z,8.9
2022-11-03T01:59:41.978Z,8.9
2022-11-03T02:00:46.621Z,8.9
2022-11-03T02:01:51.224Z,8.8
2022-11-03T02:02:55.314Z,8.8
2022-11-03T02:03:59.736Z,8.7
2022-11-03T02:05:04.350Z,8.6
2022-11-03T02:06:09.054Z,8.5
2022-11-03T02:07:13.513Z,8.6
2022-11-03T02:08:18.134Z,8.6
2022-11-03T02:09:32.846Z,8.5
2022-11-03T02:10:37.306Z,8.5
2022-11-03T02:11:41.941Z,8.5
2022-11-03T02:12:51.229Z,8.6
2022-11-03T02:13:55.718Z,8.5
2022-11-03T02:14:59.913Z,8.4
2022-11-03T02:16:06.966Z,8.3
2022-11-03T02:17:11.551Z,8.3
2022-11-03T02:18:15.733Z,8.3
2022-11-03T02:19:20.693Z,8.3
2022-11-03T02:20:27.822Z,8.3
2022-11-03T02:21:31.919Z,8.3
2022-11-03T02:22:41.730Z,8.2
2022-11-03T02:23:53.965Z,8.3
2022-11-03T02:25:03.528Z,8.3
2022-11-03T02:26:18.357Z,8.4
2022-11-03T02:27:22.907Z,8.4
2022-11-03T02:28:27.582Z,8.2
2022-11-03T02:29:32.064Z,8.1
2022-11-03T02:30:36.626Z,8.2
2022-11-03T02:31:51.450Z,8.1
2022-11-03T02:33:01.117Z,8.1
2022-11-03T02:34:15.853Z,8.1
2022-11-03T02:35:28.000Z,8.3
2022-11-03T02:36:32.538Z,8.3
2022-11-03T02:37:44.790Z,8.2
2022-11-03T02:38:49.055Z,8.1
2022-11-03T02:39:53.522Z,8.1
2022-11-03T02:40:58.035Z,8.2
2022-11-03T02:42:02.122Z,8.1
2022-11-03T02:43:06.554Z,8.2
2022-11-03T02:44:10.774Z,8.1
2022-11-03T02:45:17.250Z,8.2
2022-11-03T02:46:19.410Z,8.1
2022-11-03T02:47:23.494Z,8.1
2022-11-03T02:48:27.642Z,8.2
2022-11-03T02:49:32.166Z,8.3
2022-11-03T02:50:39.897Z,8.2
2022-11-03T02:51:44.026Z,8.1
2022-11-03T02:52:48.662Z,8.1
2022-11-03T02:53:53.206Z,8.1
2022-11-03T02:55:03.491Z,8.2
2022-11-03T02:56:13.685Z,8.2
2022-11-03T02:57:18.242Z,8.1
2022-11-03T02:58:22.726Z,8.1
2022-11-03T02:59:37.596Z,8.1
2022-11-03T03:00:42.148Z,8.1
2022-11-03T03:01:54.440Z,8.1
2022-11-03T03:03:04.210Z,8.1
2022-11-03T03:04:16.589Z,8.1
2022-11-03T03:05:31.307Z,8.2
2022-11-03T03:06:36.429Z,8.1
2022-11-03T03:07:40.985Z,8
2022-11-03T03:08:45.065Z,8.1
2022-11-03T03:09:49.209Z,8
2022-11-03T03:10:58.811Z,8.1
2022-11-03T03:12:03.371Z,8.1
2022-11-03T03:13:08.302Z,8.2
2022-11-03T03:14:12.590Z,8.1
2022-11-03T03:15:17.294Z,8.1
2022-11-03T03:16:21.710Z,8
2022-11-03T03:17:26.232Z,8.1
2022-11-03T03:18:38.457Z,8
2022-11-03T03:19:43.471Z,8.1
2022-11-03T03:20:52.715Z,7.9
2022-11-03T03:22:00.438Z,8
2022-11-03T03:23:07.530Z,8
2022-11-03T03:24:14.495Z,7.9
2022-11-03T03:25:26.805Z,8
2022-11-03T03:26:34.429Z,8
2022-11-03T03:27:38.921Z,8
2022-11-03T03:28:43.001Z,8
2022-11-03T03:29:50.413Z,8.1
2022-11-03T03:30:57.653Z,8.1
2022-11-03T03:32:01.906Z,8.2
2022-11-03T03:33:06.700Z,8.1
2022-11-03T03:34:23.988Z,8.1
2022-11-03T03:35:15.604Z,8.2
2022-11-03T03:36:20.049Z,8.3
2022-11-03T03:37:24.401Z,8.3
2022-11-03T03:38:28.830Z,8.3
2022-11-03T03:39:33.405Z,8.3
2022-11-03T03:40:37.897Z,8.4
2022-11-03T03:41:42.110Z,8.4
2022-11-03T03:42:46.617Z,8.4
2022-11-03T03:43:50.654Z,8.5
2022-11-03T03:44:54.848Z,8.4
2022-11-03T03:45:59.369Z,8.4
2022-11-03T03:47:08.960Z,8.4
2022-11-03T03:48:16.042Z,8.3
2022-11-03T03:49:20.025Z,8.3
2022-11-03T03:50:24.448Z,8.2
2022-11-03T03:51:28.825Z,8.2
2022-11-03T03:52:33.365Z,8.2
2022-11-03T03:53:37.933Z,8.2
2022-11-03T03:54:42.457Z,8.2
2022-11-03T03:55:47.287Z,8.2
2022-11-03T03:56:51.757Z,8.2
2022-11-03T03:58:01.357Z,8.2
2022-11-03T03:59:05.441Z,8.1
2022-11-03T04:00:10.005Z,8.1
2022-11-03T04:01:14.733Z,8.1
2022-11-03T04:02:19.191Z,8.1
2022-11-03T04:03:23.178Z,7.9
2022-11-03T04:04:27.281Z,7.9
2022-11-03T04:05:31.888Z,7.9
2022-11-03T04:06:35.929Z,7.8
2022-11-03T04:07:40.857Z,7.6
2022-11-03T04:08:49.238Z,7.6
2022-11-03T04:09:54.020Z,7.6
2022-11-03T04:10:58.369Z,7.6
2022-11-03T04:12:08.086Z,7.5
2022-11-03T04:13:17.650Z,7.5
2022-11-03T04:14:27.245Z,7.5
2022-11-03T04:15:37.170Z,7.5
2022-11-03T04:16:46.674Z,7.6
2022-11-03T04:17:56.443Z,7.5
2022-11-03T04:19:06.078Z,7.6
2022-11-03T04:20:15.661Z,7.6
2022-11-03T04:21:25.331Z,7.6
2022-11-03T04:22:35.134Z,7.5
2022-11-03T04:23:39.649Z,7.6
2022-11-03T04:24:44.141Z,7.6
2022-11-03T04:25:48.347Z,7.7
2022-11-03T04:26:52.917Z,7.7
2022-11-03T04:28:00.157Z,7.8
2022-11-03T04:29:09.952Z,7.7
2022-11-03T04:30:14.181Z,7.7
2022-11-03T04:31:18.741Z,7.8
2022-11-03T04:32:23.026Z,7.8
2022-11-03T04:33:27.501Z,7.8
2022-11-03T04:34:32.114Z,7.8
2022-11-03T04:35:36.617Z,7.8
2022-11-03T04:36:41.181Z,7.9
2022-11-03T04:37:47.746Z,7.9
2022-11-03T04:38:50.312Z,7.9
2022-11-03T04:39:54.622Z,7.9
2022-11-03T04:40:59.088Z,8
2022-11-03T04:42:03.534Z,7.9
2022-11-03T04:43:15.741Z,8
2022-11-03T04:44:19.909Z,8
2022-11-03T04:45:24.520Z,8
2022-11-03T04:46:29.029Z,8
2022-11-03T04:47:33.110Z,7.9
2022-11-03T04:48:37.782Z,8
2022-11-03T04:49:42.478Z,7.8
2022-11-03T04:50:47.213Z,7.7
2022-11-03T04:51:51.568Z,7.8
2022-11-03T04:52:56.034Z,7.7
2022-11-03T04:54:00.139Z,7.8
2022-11-03T04:55:04.689Z,7.8
2022-11-03T04:56:09.826Z,7.9
2022-11-03T04:57:15.533Z,7.9
2022-11-03T04:58:19.869Z,7.9
2022-11-03T04:59:24.448Z,7.9
2022-11-03T05:00:28.484Z,7.9
2022-11-03T05:01:32.773Z,7.9
2022-11-03T05:02:36.798Z,7.9
2022-11-03T05:03:41.441Z,7.8
2022-11-03T05:04:45.909Z,7.8
2022-11-03T05:05:50.130Z,7.8
2022-11-03T05:06:54.597Z,7.8
2022-11-03T05:07:58.693Z,7.8
2022-11-03T05:09:03.117Z,7.8
2022-11-03T05:10:12.357Z,7.8
2022-11-03T05:11:16.917Z,7.8
2022-11-03T05:12:24.129Z,7.8
2022-11-03T05:13:28.769Z,7.9
2022-11-03T05:14:33.309Z,7.8
2022-11-03T05:15:37.957Z,7.9
2022-11-03T05:16:42.437Z,7.9
2022-11-03T05:17:47.044Z,7.8
2022-11-03T05:18:51.545Z,7.8
2022-11-03T05:19:55.533Z,7.8
2022-11-03T05:21:02.870Z,7.8
2022-11-03T05:22:07.336Z,7.8
2022-11-03T05:23:14.849Z,7.9
2022-11-03T05:24:19.529Z,7.8
2022-11-03T05:25:26.917Z,7.8
2022-11-03T05:26:36.418Z,7.8
2022-11-03T05:27:40.997Z,7.8
2022-11-03T05:28:46.277Z,7.7
2022-11-03T05:29:51.020Z,7.6
2022-11-03T05:30:55.253Z,7.7
2022-11-03T05:31:59.661Z,7.6
2022-11-03T05:33:04.246Z,7.7
2022-11-03T05:34:13.874Z,7.6
2022-11-03T05:35:23.581Z,7.7
2022-11-03T05:36:28.126Z,7.6
2022-11-03T05:37:32.722Z,7.7
2022-11-03T05:38:37.217Z,7.7
2022-11-03T05:39:41.214Z,7.8
2022-11-03T05:40:45.497Z,7.8
2022-11-03T05:41:52.589Z,7.9
2022-11-03T05:42:57.162Z,7.9
2022-11-03T05:44:01.866Z,7.8
2022-11-03T05:45:11.329Z,7.8
2022-11-03T05:46:21.008Z,7.8
2022-11-03T05:47:25.742Z,7.8
2022-11-03T05:48:35.401Z,7.8
2022-11-03T05:49:39.785Z,7.8
2022-11-03T05:50:44.090Z,7.8
2022-11-03T05:51:48.607Z,7.9
2022-11-03T05:52:53.354Z,7.9
2022-11-03T05:53:58.257Z,7.8
2022-11-03T05:55:03.336Z,7.8
2022-11-03T05:56:08.704Z,7.8
2022-11-03T05:57:13.544Z,7.9
2022-11-03T05:58:18.040Z,7.8
2022-11-03T05:59:27.737Z,7.9
2022-11-03T06:00:32.257Z,7.9
2022-11-03T06:01:39.233Z,7.9
2022-11-03T06:02:43.536Z,7.9
2022-11-03T06:03:47.617Z,7.9
2022-11-03T06:04:51.888Z,7.9
2022-11-03T06:05:56.242Z,8
2022-11-03T06:07:00.419Z,8
2022-11-03T06:08:07.876Z,8
2022-11-03T06:09:14.579Z,8
2022-11-03T06:10:22.194Z,7.9
2022-11-03T06:11:31.741Z,8
2022-11-03T06:12:35.817Z,8
2022-11-03T06:13:39.899Z,8
2022-11-03T06:14:44.076Z,8
2022-11-03T06:15:48.928Z,8
2022-11-03T06:16:58.622Z,8
2022-11-03T06:18:03.163Z,8
2022-11-03T06:19:12.837Z,8
2022-11-03T06:20:23.310Z,8.1
2022-11-03T06:21:27.820Z,8.1
2022-11-03T06:22:32.561Z,8.1
2022-11-03T06:23:37.204Z,8.1
2022-11-03T06:24:41.851Z,8.2
2022-11-03T06:25:46.208Z,8.2
2022-11-03T06:26:50.764Z,8.2
2022-11-03T06:27:55.453Z,8.2
2022-11-03T06:29:02.573Z,8.3
2022-11-03T06:30:07.331Z,8.3
2022-11-03T06:31:22.860Z,8.3
2022-11-03T06:32:29.045Z,8.4
2022-11-03T06:33:33.612Z,8.4
2022-11-03T06:34:38.294Z,8.4
2022-11-03T06:35:42.605Z,8.4
2022-11-03T06:36:46.885Z,8.4
2022-11-03T06:37:51.401Z,8.4
2022-11-03T06:38:55.841Z,8.4
2022-11-03T06:40:03.246Z,8.4
2022-11-03T06:41:10.734Z,8.4
2022-11-03T06:42:18.489Z,8.4
2022-11-03T06:43:23.231Z,8.4
2022-11-03T06:44:35.117Z,8.4
2022-11-03T06:45:39.621Z,8.4
2022-11-03T06:46:48.844Z,8.5
2022-11-03T06:47:57.397Z,8.5
2022-11-03T06:49:02.312Z,8.6
2022-11-03T06:50:06.774Z,8.6
2022-11-03T06:51:21.405Z,8.3
2022-11-03T06:52:26.038Z,8.3
2022-11-03T06:53:33.175Z,8.4
2022-11-03T06:54:37.743Z,8.5
2022-11-03T06:55:42.155Z,8.6
2022-11-03T06:56:46.499Z,8.7
2022-11-03T06:57:51.121Z,8.7
2022-11-03T06:58:55.759Z,8.8
2022-11-03T07:00:28.421Z,8.8
2022-11-03T07:01:15.087Z,8.9
2022-11-03T07:02:19.498Z,8.9
2022-11-03T07:03:26.701Z,9
2022-11-03T07:04:31.266Z,9
2022-11-03T07:05:35.730Z,9
2022-11-03T07:06:40.313Z,9.1
2022-11-03T07:07:44.469Z,9.2
2022-11-03T07:08:48.684Z,9.1
2022-11-03T07:09:58.968Z,9.2
2022-11-03T07:11:03.310Z,9.2
2022-11-03T07:12:07.497Z,9.2
2022-11-03T07:13:12.444Z,9.3
2022-11-03T07:14:16.688Z,9.4
2022-11-03T07:15:23.769Z,9.5
2022-11-03T07:16:34.022Z,9.4
2022-11-03T07:17:38.522Z,9.6
2022-11-03T07:18:43.073Z,9.7
2022-11-03T07:19:47.853Z,9.8
2022-11-03T07:20:52.273Z,9.9
2022-11-03T07:21:56.842Z,9.9
2022-11-03T07:23:06.598Z,10
2022-11-03T07:24:11.169Z,10
2022-11-03T07:25:23.301Z,10
2022-11-03T07:26:27.821Z,10.1
2022-11-03T07:27:32.026Z,10
2022-11-03T07:28:38.969Z,10.1
2022-11-03T07:29:43.721Z,10
2022-11-03T07:30:48.311Z,10.2
2022-11-03T07:31:53.105Z,10.2
2022-11-03T07:32:58.776Z,10.2
2022-11-03T07:34:03.133Z,10.3
2022-11-03T07:35:07.777Z,10.3
2022-11-03T07:36:17.483Z,10.2
2022-11-03T07:37:21.846Z,10.3
2022-11-03T07:38:26.316Z,10.3
2022-11-03T07:39:31.078Z,10.3
2022-11-03T07:40:35.655Z,10.4
2022-11-03T07:41:40.347Z,10.4
2022-11-03T07:42:44.777Z,10.5
2022-11-03T07:43:49.325Z,10.5
2022-11-03T07:44:56.400Z,10.5
2022-11-03T07:46:01.064Z,10.6
2022-11-03T07:47:05.512Z,10.5
2022-11-03T07:48:12.640Z,10.5
2022-11-03T07:49:22.258Z,10.6
2022-11-03T07:50:26.892Z,10.6
2022-11-03T07:51:31.048Z,10.7
2022-11-03T07:52:35.412Z,10.8
2022-11-03T07:53:39.741Z,10.8
2022-11-03T07:54:44.216Z,10.9
2022-11-03T07:55:49.061Z,11
2022-11-03T07:56:53.521Z,11
2022-11-03T07:57:58.152Z,11.1
2022-11-03T07:59:02.460Z,11.1
2022-11-03T08:00:10.209Z,11
2022-11-03T08:01:13.746Z,11.1
2022-11-03T08:02:26.051Z,11.2
2022-11-03T08:03:35.545Z,11.2
2022-11-03T08:04:45.707Z,11.2
2022-11-03T08:05:49.860Z,11.1
2022-11-03T08:06:54.522Z,10.9
2022-11-03T08:07:59.066Z,11
2022-11-03T08:09:03.591Z,10.6
2022-11-03T08:10:08.279Z,10.6
2022-11-03T08:12:16.795Z,10.8
2022-11-03T08:13:22.772Z,10.6
2022-11-03T08:14:27.367Z,10.4
2022-11-03T08:15:31.894Z,10.3
2022-11-03T08:16:35.998Z,10.5
2022-11-03T08:17:40.562Z,10.6
2022-11-03T08:18:45.170Z,10.4
2022-11-03T08:19:49.618Z,10.6
2022-11-03T08:20:54.020Z,10.7
2022-11-03T08:21:58.473Z,10.7
2022-11-03T08:23:24.382Z,10.9
2022-11-03T08:24:07.590Z,11
2022-11-03T08:25:12.182Z,11
2022-11-03T08:26:16.920Z,11.1
2022-11-03T08:27:21.389Z,11.2
2022-11-03T08:28:25.948Z,11.3
2022-11-03T08:29:30.458Z,11.3
2022-11-03T08:30:34.951Z,11.3
2022-11-03T08:31:39.346Z,11.2
2022-11-03T08:32:43.967Z,11.3
2022-11-03T08:33:48.528Z,11.3
2022-11-03T08:34:53.112Z,11.4
2022-11-03T08:35:57.588Z,11.4
2022-11-03T08:37:02.087Z,11.5
2022-11-03T08:38:07.010Z,11.3
2022-11-03T08:39:11.413Z,11.5
2022-11-03T08:40:15.797Z,11.5
2022-11-03T08:41:20.782Z,11.5
2022-11-03T08:42:24.986Z,11.5
2022-11-03T08:43:29.542Z,11.6
2022-11-03T08:44:34.015Z,11.7
2022-11-03T08:45:38.624Z,11.7
2022-11-03T08:46:43.322Z,11.7
2022-11-03T08:47:48.050Z,11.7
2022-11-03T08:48:52.627Z,11.6
2022-11-03T08:49:56.987Z,11.6
2022-11-03T08:51:01.466Z,11.7
2022-11-03T08:52:06.202Z,11.8
2022-11-03T08:53:10.915Z,11.8
2022-11-03T08:54:15.362Z,11.8
2022-11-03T08:55:19.830Z,11.9
2022-11-03T08:56:24.404Z,11.9
2022-11-03T08:57:28.461Z,12
2022-11-03T08:58:32.600Z,12
2022-11-03T08:59:37.216Z,12.1
2022-11-03T09:00:41.840Z,12.1
2022-11-03T09:01:46.744Z,12
2022-11-03T09:02:50.933Z,12
2022-11-03T09:03:55.328Z,12.1
2022-11-03T09:04:59.758Z,12
2022-11-03T09:06:04.180Z,12.1
2022-11-03T09:07:08.913Z,12.1
2022-11-03T09:10:24.686Z,12.4
2022-11-03T09:11:27.046Z,12.4
2022-11-03T09:12:31.716Z,12.5
2022-11-03T09:13:36.161Z,12.4
2022-11-03T09:14:40.770Z,12.5
2022-11-03T09:15:45.457Z,12.6
2022-11-03T09:16:50.125Z,12.7
2022-11-03T09:17:54.502Z,12.9
2022-11-03T09:18:59.040Z,13
2022-11-03T09:20:03.057Z,13
2022-11-03T09:21:07.737Z,12.9
2022-11-03T09:22:12.454Z,13.1
2022-11-03T09:23:16.984Z,13.1
2022-11-03T09:24:21.630Z,13.1
2022-11-03T09:25:26.065Z,13.2
2022-11-03T09:26:30.663Z,13.3
2022-11-03T09:27:34.897Z,13.2
2022-11-03T09:28:39.379Z,13.3
2022-11-03T09:30:06.929Z,13.5
2022-11-03T09:30:48.609Z,13.7
2022-11-03T09:31:53.258Z,13.6
2022-11-03T09:32:57.965Z,13.6
2022-11-03T09:34:02.786Z,13.7
2022-11-03T09:35:07.467Z,13.9
2022-11-03T09:36:11.937Z,13.9
2022-11-03T09:37:16.145Z,14
2022-11-03T09:38:20.847Z,14.2
2022-11-03T09:39:25.123Z,14.3
2022-11-03T09:40:29.327Z,14.4
2022-11-03T09:41:55.634Z,14.5
2022-11-03T09:42:38.585Z,14.6
2022-11-03T09:43:43.217Z,14.6
2022-11-03T09:44:47.833Z,14.7
2022-11-03T09:45:52.370Z,14.6
2022-11-03T09:46:58.520Z,14.5
2022-11-03T09:48:01.493Z,14.6
2022-11-03T09:49:06.043Z,14.7
2022-11-03T09:50:10.221Z,14.9
2022-11-03T09:51:14.889Z,14.8
2022-11-03T09:52:19.444Z,14.9
2022-11-03T09:53:23.869Z,14.9
2022-11-03T09:54:28.117Z,15
2022-11-03T09:55:32.639Z,15.1
2022-11-03T09:56:37.508Z,15.2
2022-11-03T09:57:41.631Z,15.4
2022-11-03T09:58:49.871Z,14.9
2022-11-03T09:59:50.634Z,14.7
2022-11-03T10:00:55.933Z,14.8
2022-11-03T10:02:00.408Z,15
2022-11-03T10:03:05.616Z,15.1
2022-11-03T10:04:12.465Z,15.3
2022-11-03T10:05:22.326Z,15.4
2022-11-03T10:06:26.645Z,15.5
2022-11-03T10:07:31.090Z,15.4
2022-11-03T10:08:35.725Z,15.4
2022-11-03T10:09:40.245Z,15.4
2022-11-03T10:10:44.364Z,15.5
2022-11-03T10:11:48.769Z,15.7
2022-11-03T10:12:53.141Z,15.6
2022-11-03T10:13:57.237Z,15.7
2022-11-03T10:15:01.922Z,15.5
2022-11-03T10:16:06.353Z,15.6
2022-11-03T10:17:10.977Z,15.4
2022-11-03T10:18:15.477Z,15.5
2022-11-03T10:19:19.677Z,15.7
2022-11-03T10:20:24.526Z,15.8
2022-11-03T10:21:28.870Z,15.9
2022-11-03T10:22:37.063Z,15.9
2022-11-03T10:23:38.001Z,15.8
2022-11-03T10:24:42.617Z,15.9
2022-11-03T10:25:47.217Z,15.9
2022-11-03T10:26:51.856Z,16
2022-11-03T10:27:56.459Z,15.9
2022-11-03T10:29:11.229Z,15.9
2022-11-03T10:30:26.276Z,15.8
2022-11-03T10:31:29.906Z,15.8
2022-11-03T10:32:37.225Z,15.9
2022-11-03T10:33:41.954Z,15.7
2022-11-03T10:34:54.041Z,15.9
2022-11-03T10:35:58.545Z,16
2022-11-03T10:37:06.304Z,15.9
2022-11-03T10:38:15.834Z,16
2022-11-03T10:39:28.026Z,15.7
2022-11-03T10:40:47.120Z,15.6
2022-11-03T10:41:37.077Z,15.7
2022-11-03T10:42:41.171Z,15.7
2022-11-03T10:43:45.305Z,15.6
2022-11-03T10:45:00.200Z,15.9
2022-11-03T10:46:23.351Z,15.9
2022-11-03T10:47:17.014Z,15.9
2022-11-03T10:48:26.545Z,16
2022-11-03T10:49:30.619Z,16.1
2022-11-03T10:50:34.646Z,16.1
2022-11-03T10:51:38.813Z,16.2
2022-11-03T10:52:43.000Z,16.3
2022-11-03T10:53:47.596Z,16.3
2022-11-03T10:54:52.169Z,16.4
2022-11-03T10:55:56.801Z,16.4
2022-11-03T10:57:01.454Z,16.4
2022-11-03T10:58:06.297Z,16.3
2022-11-03T10:59:10.646Z,16.2
2022-11-03T11:00:20.145Z,15.9
2022-11-03T11:01:24.995Z,15.8
2022-11-03T11:02:29.450Z,15.8
2022-11-03T11:03:33.905Z,16.1
2022-11-03T11:04:38.206Z,16.1
2022-11-03T11:05:42.530Z,16.3
2022-11-03T11:06:46.884Z,16.4
2022-11-03T11:07:51.407Z,16
2022-11-03T11:08:59.888Z,15.9
2022-11-03T11:10:03.549Z,16.1
2022-11-03T11:11:16.225Z,16.3
2022-11-03T11:12:20.375Z,16.2
2022-11-03T11:13:25.064Z,15.9
2022-11-03T11:14:29.793Z,16
2022-11-03T11:15:37.013Z,16.2
2022-11-03T11:16:44.337Z,16.2
2022-11-03T11:17:56.633Z,16.1
2022-11-03T11:19:01.337Z,16.2
2022-11-03T11:20:05.629Z,16.2
2022-11-03T11:21:20.457Z,16.1
2022-11-03T11:22:27.885Z,16
2022-11-03T11:23:32.208Z,16
2022-11-03T11:24:36.645Z,16.1
2022-11-03T11:25:43.831Z,16.1
2022-11-03T11:26:58.533Z,16.2
2022-11-03T11:28:02.722Z,16.3
2022-11-03T11:29:12.256Z,16.4
2022-11-03T11:30:16.828Z,16.4
2022-11-03T11:31:21.157Z,16.3
2022-11-03T11:32:28.589Z,16.2
2022-11-03T11:33:40.771Z,16.3
2022-11-03T11:34:44.905Z,16.3
2022-11-03T11:35:50.746Z,16.2
2022-11-03T11:36:54.232Z,16.3
2022-11-03T11:37:58.597Z,16.4
2022-11-03T11:39:13.507Z,16.4
2022-11-03T11:40:21.022Z,16.4
2022-11-03T11:41:25.649Z,16.3
2022-11-03T11:42:40.570Z,16.4
2022-11-03T11:43:55.329Z,16.3
2022-11-03T11:44:59.723Z,16.3
2022-11-03T11:46:04.261Z,16.3
2022-11-03T11:47:14.026Z,16.3
2022-11-03T11:48:23.709Z,16.3
2022-11-03T11:49:28.330Z,16.3
2022-11-03T11:50:32.878Z,16.4
2022-11-03T11:51:37.005Z,16.5
2022-11-03T11:52:41.765Z,16.5
2022-11-03T11:53:48.154Z,16.6
2022-11-03T11:54:50.278Z,16.6
2022-11-03T11:55:54.920Z,16.6
2022-11-03T11:56:59.464Z,16.7
2022-11-03T11:58:03.936Z,16.7
2022-11-03T11:59:13.688Z,16.7
2022-11-03T12:00:23.761Z,16.8
2022-11-03T12:01:27.990Z,16.7
2022-11-03T12:02:35.025Z,16.6
2022-11-03T12:03:39.568Z,16.4
2022-11-03T12:04:48.082Z,16.3
2022-11-03T12:05:53.853Z,16.2
2022-11-03T12:06:58.394Z,16.3
2022-11-03T12:08:03.113Z,16.1
2022-11-03T12:09:17.864Z,16.2
2022-11-03T12:10:22.465Z,16.1
2022-11-03T12:11:32.722Z,16.1
2022-11-03T12:12:44.917Z,16.1
2022-11-03T12:13:49.493Z,16.1
2022-11-03T12:14:53.950Z,16
2022-11-03T12:15:58.078Z,16
2022-11-03T12:17:02.793Z,16
2022-11-03T12:18:14.970Z,16
2022-11-03T12:19:29.673Z,16.1
2022-11-03T12:20:41.852Z,16.1
2022-11-03T12:21:49.059Z,16.1
2022-11-03T12:22:54.284Z,16
2022-11-03T12:23:58.692Z,15.9
2022-11-03T12:25:03.288Z,16.1
2022-11-03T12:26:07.924Z,16
2022-11-03T12:27:17.568Z,16
2022-11-03T12:28:25.167Z,15.9
2022-11-03T12:29:35.891Z,15.9
2022-11-03T12:30:40.637Z,16
2022-11-03T12:31:45.101Z,15.9
2022-11-03T12:32:49.633Z,16
2022-11-03T12:33:54.349Z,16.1
2022-11-03T12:34:58.820Z,16.1
2022-11-03T12:36:03.572Z,16.1
2022-11-03T12:37:08.427Z,16.1
2022-11-03T12:38:13.032Z,16.1
2022-11-03T12:39:17.604Z,16
2022-11-03T12:40:22.235Z,15.9
2022-11-03T12:41:26.938Z,15.9
2022-11-03T12:42:31.538Z,15.8
2022-11-03T12:43:36.022Z,15.8
2022-11-03T12:44:43.721Z,15.7
2022-11-03T12:45:50.092Z,15.7
2022-11-03T12:46:54.428Z,15.6
2022-11-03T12:47:59.135Z,15.6
2022-11-03T12:49:03.776Z,15.6
2022-11-03T12:50:08.156Z,15.5
2022-11-03T12:51:12.884Z,15.6
2022-11-03T12:52:17.239Z,15.6
2022-11-03T12:53:23.184Z,15.6
2022-11-03T12:54:27.675Z,15.6
2022-11-03T12:55:32.142Z,15.6
2022-11-03T12:56:36.716Z,15.5
2022-11-03T12:57:41.188Z,15.5
2022-11-03T12:58:45.417Z,15.6
2022-11-03T12:59:50.064Z,15.5
2022-11-03T13:00:55.255Z,15.5
2022-11-03T13:01:59.685Z,15.5
2022-11-03T13:03:03.915Z,15.7
2022-11-03T13:04:08.420Z,15.7
2022-11-03T13:05:13.033Z,15.7
2022-11-03T13:06:17.431Z,15.7
2022-11-03T13:07:26.723Z,15.7
2022-11-03T13:08:26.351Z,15.6
2022-11-03T13:09:33.403Z,15.6
2022-11-03T13:10:38.076Z,15.5
2022-11-03T13:11:42.499Z,15.5
2022-11-03T13:12:52.474Z,15.5
2022-11-03T13:13:56.777Z,15.6
2022-11-03T13:15:01.217Z,15.6
2022-11-03T13:16:06.114Z,15.6
2022-11-03T13:17:10.543Z,15.6
2022-11-03T13:18:14.896Z,15.7
2022-11-03T13:19:19.295Z,15.6
2022-11-03T13:20:23.949Z,15.6
2022-11-03T13:21:28.692Z,15.5
2022-11-03T13:22:33.204Z,15.5
2022-11-03T13:23:37.640Z,15.4
2022-11-03T13:24:41.975Z,15.4
2022-11-03T13:25:46.497Z,15.4
2022-11-03T13:26:50.951Z,15.4
2022-11-03T13:27:55.652Z,15.4
2022-11-03T13:29:00.230Z,15.5
2022-11-03T13:30:04.756Z,15.4
2022-11-03T13:31:09.528Z,15.3
2022-11-03T13:32:14.012Z,15.2
2022-11-03T13:33:18.562Z,15.1
2022-11-03T13:34:23.004Z,15.1
2022-11-03T13:35:27.570Z,15.1
2022-11-03T13:36:31.946Z,15
2022-11-03T13:37:36.317Z,15
2022-11-03T13:38:41.302Z,15.1
2022-11-03T13:39:45.921Z,15
2022-11-03T13:40:57.347Z,15
2022-11-03T13:41:54.873Z,15.1
2022-11-03T13:42:59.332Z,15.1
2022-11-03T13:44:04.057Z,15
2022-11-03T13:45:08.510Z,15
2022-11-03T13:46:13.125Z,14.9
2022-11-03T13:47:17.741Z,15
2022-11-03T13:49:09.008Z,15
2022-11-03T13:50:31.556Z,14.9
2022-11-03T13:51:36.054Z,14.9
2022-11-03T13:52:40.745Z,14.8
2022-11-03T13:55:54.293Z,14.8
2022-11-03T14:00:12.240Z,14.9
2022-11-03T14:01:17.061Z,14.9
2022-11-03T14:04:45.710Z,15.1
2022-11-03T14:05:34.872Z,15.1
2022-11-03T14:06:39.132Z,15.1
2022-11-03T14:07:43.555Z,15.1
2022-11-03T14:08:47.772Z,15.1
2022-11-03T14:09:52.037Z,15.1
2022-11-03T14:10:56.506Z,15.1
2022-11-03T14:12:01.009Z,15.2
2022-11-03T14:13:10.791Z,15.2
2022-11-03T14:14:15.420Z,15.2
2022-11-03T14:15:20.193Z,15.1
2022-11-03T14:16:24.496Z,15.1
2022-11-03T14:17:29.057Z,15.1
2022-11-03T14:18:33.740Z,15.1
2022-11-03T14:19:43.944Z,15.2
2022-11-03T14:20:42.924Z,15.2
2022-11-03T14:21:47.351Z,15.2
2022-11-03T14:22:52.019Z,15.2
2022-11-03T14:23:56.905Z,15.2
2022-11-03T14:25:01.220Z,15.2
2022-11-03T14:26:13.014Z,15.1
2022-11-03T14:27:10.314Z,15
2022-11-03T14:28:20.694Z,15
2022-11-03T14:29:19.506Z,15
2022-11-03T14:30:24.025Z,15
2022-11-03T14:31:28.109Z,14.9
2022-11-03T14:32:32.790Z,14.9
2022-11-03T14:33:37.471Z,15
2022-11-03T14:34:42.061Z,15
2022-11-03T14:35:46.534Z,15
2022-11-03T14:36:51.249Z,14.9
2022-11-03T14:37:55.789Z,15
2022-11-03T14:39:00.302Z,15
2022-11-03T14:40:05.169Z,15
2022-11-03T14:41:09.394Z,14.9
2022-11-03T14:42:16.761Z,14.9
2022-11-03T14:43:21.208Z,14.9
2022-11-03T14:44:26.297Z,14.8
2022-11-03T14:45:34.880Z,14.8
2022-11-03T14:46:37.491Z,14.8
2022-11-03T14:47:42.014Z,14.8
2022-11-03T14:48:46.185Z,14.8
2022-11-03T14:49:50.897Z,14.8
2022-11-03T14:50:55.610Z,14.8
2022-11-03T14:51:59.987Z,14.7
2022-11-03T14:53:04.553Z,14.7
2022-11-03T14:54:09.073Z,14.7
2022-11-03T14:55:13.648Z,14.7
2022-11-03T14:56:18.341Z,14.7
2022-11-03T14:57:22.916Z,14.7
2022-11-03T14:58:27.567Z,14.6
2022-11-03T14:59:31.961Z,14.6
2022-11-03T15:00:36.574Z,14.5
2022-11-03T15:01:41.532Z,14.5
2022-11-03T15:02:45.757Z,14.5
2022-11-03T15:03:49.941Z,14.4
2022-11-03T15:04:54.526Z,14.4